Time;durP1;ratioP1;P1;durP2;ratioP2;P2;SDS_P1;SDS_P2;PMS_P1;PMS_P2;Temp;Humidity;BMP_temperature;BMP_pressure;BME280_temperature;BME280_humidity;BME280_pressure;Samples;Min_cycle;Max_cycle;Signal;HPM_P1;HPM_P2
2023/09/12 00:01:43;;;;;;;12.00;6.30;;;;;;;;;;4929620;29;20036;-80
2023/09/12 00:04:11;;;;;;;11.18;6.05;;;;;;;;;;4960594;29;20036;-80
2023/09/12 00:06:36;;;;;;;11.23;5.53;;;;;;;;;;4926655;29;20041;-80
2023/09/12 00:09:06;;;;;;;17.77;5.47;;;;;;;;;;4959288;28;20083;-81
2023/09/12 00:11:32;;;;;;;;;;;;;;;;;;4918743;29;20029;-81
2023/09/12 00:13:59;;;;;;;11.57;5.95;;;;;;;;;;4927879;29;19911;-81
2023/09/12 00:16:24;;;;;;;13.90;5.70;;;;;;;;;;4929791;29;20115;-81
2023/09/12 00:18:50;;;;;;;12.88;6.15;;;;;;;;;;4947365;29;20397;-80
2023/09/12 00:21:16;;;;;;;12.13;5.63;;;;;;;;;;4967673;29;20044;-80
2023/09/12 00:23:41;;;;;;;11.10;6.00;;;;;;;;;;4951887;29;20038;-81
2023/09/12 00:26:07;;;;;;;12.13;5.90;;;;;;;;;;4967792;29;20060;-80
2023/09/12 00:28:34;;;;;;;12.93;5.75;;;;;;;;;;4932225;29;20096;-81
2023/09/12 00:30:59;;;;;;;19.10;6.63;;;;;;;;;;4933553;29;20032;-80
2023/09/12 00:33:29;;;;;;;10.63;5.75;;;;;;;;;;4965460;29;20024;-80
2023/09/12 00:35:54;;;;;;;12.98;5.93;;;;;;;;;;4933199;29;20046;-80
2023/09/12 00:38:20;;;;;;;10.38;5.65;;;;;;;;;;4947053;29;20029;-81
2023/09/12 00:40:46;;;;;;;14.60;6.13;;;;;;;;;;4943320;29;20032;-80
2023/09/12 00:43:13;;;;;;;11.45;5.78;;;;;;;;;;4946596;29;20492;-80
2023/09/12 00:45:39;;;;;;;12.07;5.93;;;;;;;;;;4962362;29;20090;-80
2023/09/12 00:48:06;;;;;;;9.70;5.32;;;;;;;;;;4961935;28;20035;-81
2023/09/12 00:50:32;;;;;;;9.85;6.25;;;;;;;;;;4980605;28;20046;-80
2023/09/12 00:52:58;;;;;;;10.68;5.57;;;;;;;;;;4946842;29;20028;-80
2023/09/12 00:55:24;;;;;;;9.18;6.05;;;;;;;;;;4962993;28;20023;-80
2023/09/12 00:57:51;;;;;;;12.90;5.85;;;;;;;;;;4963111;28;20127;-80
2023/09/12 01:00:17;;;;;;;12.30;6.10;;;;;;;;;;4955767;28;20036;-80
2023/09/12 01:02:44;;;;;;;13.48;5.10;;;;;;;;;;4946149;29;20048;-80
2023/09/12 01:05:10;;;;;;;13.15;5.97;;;;;;;;;;4956596;29;20460;-80
2023/09/12 01:07:36;;;;;;;11.25;5.78;;;;;;;;;;4927024;29;20035;-81
2023/09/12 01:10:03;;;;;;;15.45;6.50;;;;;;;;;;4945063;29;20036;-83
2023/09/12 01:12:29;;;;;;;11.48;6.03;;;;;;;;;;4944890;29;20519;-80
2023/09/12 01:14:55;;;;;;;11.25;6.10;;;;;;;;;;4946018;29;20028;-79
2023/09/12 01:17:21;;;;;;;11.27;5.53;;;;;;;;;;4959234;29;20388;-81
2023/09/12 01:19:48;;;;;;;11.55;6.13;;;;;;;;;;4931339;29;20060;-80
2023/09/12 01:22:32;;;;;;;14.95;5.68;;;;;;;;;;4947968;29;20403;-79
2023/09/12 01:25:14;;;;;;;12.73;6.13;;;;;;;;;;4946194;29;20035;-80
2023/09/12 01:27:46;;;;;;;11.75;5.70;;;;;;;;;;4964844;29;20380;-80
2023/09/12 01:30:15;;;;;;;11.32;5.88;;;;;;;;;;4948456;29;20036;-79
2023/09/12 01:32:42;;;;;;;9.52;5.50;;;;;;;;;;4946954;29;20031;-79
2023/09/12 01:35:08;;;;;;;12.10;5.82;;;;;;;;;;4946238;29;20028;-79
2023/09/12 01:37:34;;;;;;;8.75;5.50;;;;;;;;;;4964847;29;20066;-79
2023/09/12 01:40:00;;;;;;;11.32;5.75;;;;;;;;;;4968181;29;20587;-79
2023/09/12 01:42:29;;;;;;;13.48;5.68;;;;;;;;;;4982998;28;20102;-79
2023/09/12 01:44:56;;;;;;;12.23;5.97;;;;;;;;;;4965879;29;20043;-80
2023/09/12 01:47:23;;;;;;;14.07;6.30;;;;;;;;;;4966267;29;20071;-79
2023/09/12 01:49:51;;;;;;;10.80;5.88;;;;;;;;;;4964970;29;20075;-80
2023/09/12 01:52:19;;;;;;;9.45;5.55;;;;;;;;;;4951149;29;20028;-79
2023/09/12 01:54:44;;;;;;;9.98;5.43;;;;;;;;;;4950119;29;20032;-79
2023/09/12 01:57:10;;;;;;;9.40;5.68;;;;;;;;;;4920087;29;20039;-80
2023/09/12 01:59:36;;;;;;;11.95;6.30;;;;;;;;;;4950969;28;20043;-81
2023/09/12 02:02:02;;;;;;;16.13;6.28;;;;;;;;;;4935138;29;20049;-80
2023/09/12 02:04:28;;;;;;;11.15;6.18;;;;;;;;;;4965226;29;20035;-81
2023/09/12 02:06:54;;;;;;;12.45;5.55;;;;;;;;;;4954406;29;20074;-80
2023/09/12 02:09:20;;;;;;;11.05;5.47;;;;;;;;;;4950606;29;20040;-81
2023/09/12 02:11:48;;;;;;;11.00;6.30;;;;;;;;;;4953521;29;20154;-79
2023/09/12 02:14:14;;;;;;;9.73;5.50;;;;;;;;;;4954690;29;20088;-79
2023/09/12 02:16:39;;;;;;;11.63;5.82;;;;;;;;;;4970949;29;20036;-80
2023/09/12 02:19:05;;;;;;;13.40;6.00;;;;;;;;;;4967173;28;20036;-80
2023/09/12 02:21:31;;;;;;;10.35;5.88;;;;;;;;;;4943079;29;20044;-80
2023/09/12 02:23:58;;;;;;;13.52;6.00;;;;;;;;;;4959513;29;20111;-80
2023/09/12 02:26:23;;;;;;;10.50;6.32;;;;;;;;;;4926413;29;20436;-79
2023/09/12 02:28:50;;;;;;;12.70;5.57;;;;;;;;;;4956361;28;20043;-79
2023/09/12 02:31:16;;;;;;;13.30;6.13;;;;;;;;;;4956130;29;20412;-79
2023/09/12 02:33:41;;;;;;;14.18;6.85;;;;;;;;;;4941850;29;20040;-80
2023/09/12 02:36:09;;;;;;;15.43;6.18;;;;;;;;;;4976473;28;20039;-80
2023/09/12 02:38:35;;;;;;;11.80;6.40;;;;;;;;;;4961790;28;20064;-81
2023/09/12 02:41:02;;;;;;;15.43;5.90;;;;;;;;;;4961417;29;20275;-79
2023/09/12 02:43:28;;;;;;;10.02;5.40;;;;;;;;;;4957170;29;20075;-80
2023/09/12 02:45:55;;;;;;;21.92;9.70;;;;;;;;;;4939772;29;20143;-79
2023/09/12 02:48:20;;;;;;;11.85;5.90;;;;;;;;;;4939707;29;20071;-80
2023/09/12 02:50:46;;;;;;;10.40;5.80;;;;;;;;;;4975809;28;20043;-81
2023/09/12 02:53:13;;;;;;;11.02;6.10;;;;;;;;;;4944940;29;20123;-81
2023/09/12 02:55:43;;;;;;;12.38;5.95;;;;;;;;;;4948925;29;20032;-80
2023/09/12 02:58:09;;;;;;;10.80;5.97;;;;;;;;;;4967253;28;20028;-80
2023/09/12 03:00:39;;;;;;;13.27;7.78;;;;;;;;;;4957227;29;20023;-80
2023/09/12 03:03:05;;;;;;;12.48;6.47;;;;;;;;;;4937319;29;20036;-80
2023/09/12 03:05:31;;;;;;;11.43;5.82;;;;;;;;;;4963760;29;20112;-79
2023/09/12 03:07:57;;;;;;;13.48;6.72;;;;;;;;;;4932085;29;20036;-77
2023/09/12 03:10:23;;;;;;;11.20;6.30;;;;;;;;;;4947260;29;20040;-79
2023/09/12 03:12:49;;;;;;;11.27;6.15;;;;;;;;;;4977376;28;20031;-80
2023/09/12 03:15:15;;;;;;;14.13;5.90;;;;;;;;;;4946647;29;20034;-80
2023/09/12 03:17:41;;;;;;;10.68;6.25;;;;;;;;;;4928676;29;20118;-79
2023/09/12 03:20:08;;;;;;;10.60;6.50;;;;;;;;;;4975163;28;20110;-79
2023/09/12 03:22:37;;;;;;;11.65;6.25;;;;;;;;;;4959327;29;20063;-80
2023/09/12 03:25:06;;;;;;;14.30;6.25;;;;;;;;;;4961369;29;20075;-80
2023/09/12 03:27:35;;;;;;;11.60;6.45;;;;;;;;;;4944690;29;20055;-79
2023/09/12 03:30:01;;;;;;;13.18;7.68;;;;;;;;;;4943125;29;20032;-78
2023/09/12 03:32:27;;;;;;;12.75;6.18;;;;;;;;;;4943439;29;20028;-79
2023/09/12 03:34:53;;;;;;;12.65;6.45;;;;;;;;;;4908637;29;20032;-80
2023/09/12 03:37:19;;;;;;;10.35;6.25;;;;;;;;;;4941138;29;20040;-80
2023/09/12 03:39:45;;;;;;;16.45;7.18;;;;;;;;;;4926040;29;20108;-81
2023/09/12 03:42:11;;;;;;;10.10;6.50;;;;;;;;;;4942259;29;20042;-80
2023/09/12 03:44:37;;;;;;;13.18;6.85;;;;;;;;;;4942255;29;20032;-79
2023/09/12 03:47:04;;;;;;;10.15;6.25;;;;;;;;;;4959292;29;20036;-79
2023/09/12 03:49:30;;;;;;;13.88;6.57;;;;;;;;;;4944778;29;20036;-80
2023/09/12 03:51:56;;;;;;;16.60;6.88;;;;;;;;;;4949429;29;20054;-79
2023/09/12 03:54:22;;;;;;;13.68;6.93;;;;;;;;;;4961648;28;20028;-80
2023/09/12 03:56:48;;;;;;;12.98;7.70;;;;;;;;;;4945538;29;20067;-79
2023/09/12 03:59:14;;;;;;;10.27;7.03;;;;;;;;;;4961944;28;20028;-80
2023/09/12 04:01:40;;;;;;;11.73;7.40;;;;;;;;;;4962423;29;20024;-80
2023/09/12 04:04:06;;;;;;;11.93;7.28;;;;;;;;;;4964158;29;20024;-81
2023/09/12 04:06:31;;;;;;;13.85;7.45;;;;;;;;;;4932520;29;20036;-79
2023/09/12 04:08:57;;;;;;;17.65;6.97;;;;;;;;;;4948948;29;20143;-80
2023/09/12 04:11:23;;;;;;;18.40;6.60;;;;;;;;;;4965364;29;20044;-80
2023/09/12 04:13:48;;;;;;;9.98;6.60;;;;;;;;;;4952193;29;20008;-81
2023/09/12 04:16:14;;;;;;;14.68;6.63;;;;;;;;;;4952210;29;20036;-81
2023/09/12 04:18:40;;;;;;;15.00;7.28;;;;;;;;;;4950098;29;20028;-81
2023/09/12 04:21:06;;;;;;;13.68;7.60;;;;;;;;;;4951840;29;20043;-81
2023/09/12 04:23:33;;;;;;;13.02;7.55;;;;;;;;;;4934984;29;20056;-83
2023/09/12 04:26:03;;;;;;;11.70;7.00;;;;;;;;;;4945547;29;20031;-80
2023/09/12 04:28:29;;;;;;;10.98;6.63;;;;;;;;;;4986879;28;20063;-81
2023/09/12 04:31:02;;;;;;;13.05;7.28;;;;;;;;;;4954778;29;20042;-81
2023/09/12 04:33:28;;;;;;;12.98;7.13;;;;;;;;;;4954925;29;20028;-81
2023/09/12 04:35:53;;;;;;;12.93;7.40;;;;;;;;;;4941127;29;20036;-81
2023/09/12 04:38:20;;;;;;;11.18;7.50;;;;;;;;;;4973092;29;20032;-81
2023/09/12 04:40:55;;;;;;;17.23;8.27;;;;;;;;;;4938054;29;20131;-80
2023/09/12 04:43:22;;;;;;;14.65;7.50;;;;;;;;;;4949019;29;20035;-80
2023/09/12 04:45:48;;;;;;;16.65;8.80;;;;;;;;;;4932595;29;20094;-80
2023/09/12 04:48:14;;;;;;;14.68;7.35;;;;;;;;;;4948623;29;20032;-80
2023/09/12 04:50:43;;;;;;;11.45;7.10;;;;;;;;;;4932876;29;20043;-80
2023/09/12 04:53:09;;;;;;;25.27;8.65;;;;;;;;;;4964872;29;20046;-80
2023/09/12 04:55:38;;;;;;;18.23;7.50;;;;;;;;;;4952970;29;20096;-80
2023/09/12 04:58:04;;;;;;;11.93;6.97;;;;;;;;;;4937867;29;20062;-80
2023/09/12 05:00:31;;;;;;;13.85;7.65;;;;;;;;;;4938635;29;20035;-80
2023/09/12 05:02:56;;;;;;;14.57;7.55;;;;;;;;;;4953300;29;20085;-80
2023/09/12 05:05:22;;;;;;;11.23;7.20;;;;;;;;;;4954255;29;20044;-80
2023/09/12 05:07:48;;;;;;;14.45;7.88;;;;;;;;;;4952265;29;20031;-80
2023/09/12 05:10:13;;;;;;;17.63;7.13;;;;;;;;;;4952741;29;20111;-81
2023/09/12 05:12:39;;;;;;;16.13;7.38;;;;;;;;;;4969513;29;20023;-80
2023/09/12 05:15:05;;;;;;;16.92;8.27;;;;;;;;;;4955158;29;20035;-80
2023/09/12 05:17:31;;;;;;;16.35;7.38;;;;;;;;;;4936300;29;20024;-81
2023/09/12 05:19:57;;;;;;;17.75;8.05;;;;;;;;;;4953046;29;20036;-79
2023/09/12 05:22:22;;;;;;;15.27;8.57;;;;;;;;;;4954021;29;20040;-81
2023/09/12 05:24:49;;;;;;;17.15;7.65;;;;;;;;;;4953375;29;20031;-79
2023/09/12 05:27:15;;;;;;;12.95;7.68;;;;;;;;;;4937048;29;20040;-79
2023/09/12 05:29:41;;;;;;;14.23;7.45;;;;;;;;;;4936706;29;20559;-81
2023/09/12 05:32:06;;;;;;;14.18;7.38;;;;;;;;;;4954279;29;20130;-80
2023/09/12 05:34:32;;;;;;;17.52;7.80;;;;;;;;;;4941671;29;20047;-79
2023/09/12 05:36:58;;;;;;;25.15;7.45;;;;;;;;;;4966451;29;20028;-80
2023/09/12 05:39:24;;;;;;;24.45;8.20;;;;;;;;;;4952863;29;20059;-79
2023/09/12 05:41:50;;;;;;;16.50;8.02;;;;;;;;;;4950074;29;20090;-79
2023/09/12 05:44:18;;;;;;;12.60;7.93;;;;;;;;;;4948243;29;20474;-79
2023/09/12 05:46:47;;;;;;;16.05;8.13;;;;;;;;;;4945826;29;20044;-79
2023/09/12 05:49:14;;;;;;;13.57;7.28;;;;;;;;;;4949423;29;20043;-81
2023/09/12 05:51:40;;;;;;;12.55;7.90;;;;;;;;;;4935150;29;20110;-80
2023/09/12 05:54:06;;;;;;;16.80;7.82;;;;;;;;;;4955641;29;20027;-81
2023/09/12 05:56:31;;;;;;;16.23;7.45;;;;;;;;;;4954107;29;20046;-80
2023/09/12 05:58:57;;;;;;;18.60;8.10;;;;;;;;;;4953810;29;20070;-81
2023/09/12 06:01:23;;;;;;;16.45;8.23;;;;;;;;;;4968313;29;20047;-80
2023/09/12 06:03:50;;;;;;;17.67;7.10;;;;;;;;;;4930910;29;20032;-81
2023/09/12 06:06:16;;;;;;;18.55;8.15;;;;;;;;;;4944958;29;20035;-80
2023/09/12 06:08:41;;;;;;;12.18;7.00;;;;;;;;;;4962476;28;20039;-80
2023/09/12 06:11:07;;;;;;;22.25;7.90;;;;;;;;;;4946614;29;20046;-81
2023/09/12 06:13:35;;;;;;;14.00;7.50;;;;;;;;;;4947881;29;20031;-79
2023/09/12 06:16:01;;;;;;;12.60;7.50;;;;;;;;;;4944869;29;20492;-80
2023/09/12 06:18:29;;;;;;;13.18;7.55;;;;;;;;;;4963437;28;20047;-80
2023/09/12 06:20:55;;;;;;;;;;;;;;;;;;4930720;29;20055;-79
2023/09/12 06:23:21;;;;;;;17.02;7.43;;;;;;;;;;4948999;29;19938;-80
2023/09/12 06:25:46;;;;;;;16.83;7.20;;;;;;;;;;4945315;29;20047;-79
2023/09/12 06:28:24;;;;;;;13.98;7.97;;;;;;;;;;4928126;29;20059;-80
2023/09/12 06:30:49;;;;;;;19.42;7.50;;;;;;;;;;4952750;29;20090;-80
2023/09/12 06:33:15;;;;;;;12.80;6.95;;;;;;;;;;4949922;29;20539;-80
2023/09/12 06:35:41;;;;;;;18.50;7.82;;;;;;;;;;4981680;28;20047;-81
2023/09/12 06:38:06;;;;;;;17.48;7.40;;;;;;;;;;4942913;29;20047;-79
2023/09/12 06:40:32;;;;;;;16.10;7.75;;;;;;;;;;4957952;29;20035;-80
2023/09/12 06:42:57;;;;;;;15.27;7.10;;;;;;;;;;4942616;29;20087;-79
2023/09/12 06:45:23;;;;;;;19.88;8.27;;;;;;;;;;4940747;29;20094;-79
2023/09/12 06:47:49;;;;;;;14.02;7.30;;;;;;;;;;4960133;29;20058;-79
2023/09/12 06:50:14;;;;;;;15.98;7.43;;;;;;;;;;4930356;29;20031;-79
2023/09/12 06:52:40;;;;;;;17.75;6.75;;;;;;;;;;4945436;29;20051;-78
2023/09/12 06:55:07;;;;;;;17.08;7.20;;;;;;;;;;4942879;29;20031;-79
2023/09/12 06:57:32;;;;;;;19.13;7.20;;;;;;;;;;4958895;28;20036;-78
2023/09/12 06:59:58;;;;;;;19.20;7.22;;;;;;;;;;4942174;29;20087;-79
2023/09/12 07:02:24;;;;;;;16.73;7.32;;;;;;;;;;4942060;29;20051;-79
2023/09/12 07:04:49;;;;;;;17.88;7.07;;;;;;;;;;4945526;29;20032;-79
2023/09/12 07:07:15;;;;;;;12.05;6.88;;;;;;;;;;4947656;29;20032;-80
2023/09/12 07:09:41;;;;;;;19.08;6.80;;;;;;;;;;4951468;29;20059;-79
2023/09/12 07:12:07;;;;;;;16.92;7.45;;;;;;;;;;4950780;29;20083;-80
2023/09/12 07:14:32;;;;;;;12.40;6.75;;;;;;;;;;4950985;29;20020;-79
2023/09/12 07:16:58;;;;;;;20.13;7.43;;;;;;;;;;4936340;29;20043;-79
2023/09/12 07:19:25;;;;;;;17.20;7.43;;;;;;;;;;4961415;28;20091;-79
2023/09/12 07:21:51;;;;;;;22.23;7.43;;;;;;;;;;4990043;28;20042;-80
2023/09/12 07:24:16;;;;;;;20.55;7.30;;;;;;;;;;4960426;29;20035;-80
2023/09/12 07:26:42;;;;;;;18.60;7.57;;;;;;;;;;4960093;29;20031;-80
2023/09/12 07:29:08;;;;;;;15.48;7.25;;;;;;;;;;4960530;29;20091;-80
2023/09/12 07:31:34;;;;;;;16.55;7.28;;;;;;;;;;4973717;29;20075;-80
2023/09/12 07:33:59;;;;;;;21.98;8.15;;;;;;;;;;4973726;29;20038;-81
2023/09/12 07:36:25;;;;;;;15.93;6.78;;;;;;;;;;4989374;28;20055;-81
2023/09/12 07:38:50;;;;;;;20.65;7.40;;;;;;;;;;4957225;29;20032;-78
2023/09/12 07:41:16;;;;;;;19.33;6.75;;;;;;;;;;4956006;29;20031;-79
2023/09/12 07:43:42;;;;;;;17.92;6.25;;;;;;;;;;4941362;29;20078;-81
2023/09/12 07:46:08;;;;;;;19.35;7.50;;;;;;;;;;4955106;29;20039;-80
2023/09/12 07:48:33;;;;;;;22.70;6.25;;;;;;;;;;4940590;29;20048;-80
2023/09/12 07:50:59;;;;;;;18.33;6.68;;;;;;;;;;4957222;29;20057;-80
2023/09/12 07:53:25;;;;;;;17.23;6.57;;;;;;;;;;4938783;29;20031;-80
2023/09/12 07:55:50;;;;;;;22.50;6.93;;;;;;;;;;4958665;29;20043;-80
2023/09/12 07:58:18;;;;;;;15.82;6.80;;;;;;;;;;4956975;29;20031;-81
2023/09/12 08:00:44;;;;;;;25.58;8.10;;;;;;;;;;4942055;29;20098;-81
2023/09/12 08:03:11;;;;;;;25.20;7.75;;;;;;;;;;4959572;29;20032;-80
2023/09/12 08:05:38;;;;;;;19.65;7.00;;;;;;;;;;4962422;29;20136;-82
2023/09/12 08:08:04;;;;;;;17.45;5.38;;;;;;;;;;4958795;29;20426;-79
2023/09/12 08:10:30;;;;;;;21.50;5.85;;;;;;;;;;4978595;28;20024;-79
2023/09/12 08:12:56;;;;;;;17.90;6.45;;;;;;;;;;4977782;28;20031;-79
2023/09/12 08:15:22;;;;;;;22.27;6.30;;;;;;;;;;4976806;29;20098;-80
2023/09/12 08:17:51;;;;;;;23.52;10.13;;;;;;;;;;4977030;28;20127;-81
2023/09/12 08:20:17;;;;;;;28.90;10.55;;;;;;;;;;4991235;28;20046;-81
2023/09/12 08:22:43;;;;;;;16.77;7.32;;;;;;;;;;4975641;28;20032;-80
2023/09/12 08:25:09;;;;;;;20.90;8.77;;;;;;;;;;4976209;28;20035;-81
2023/09/12 08:27:35;;;;;;;32.30;12.20;;;;;;;;;;4960425;29;20036;-80
2023/09/12 08:30:01;;;;;;;19.52;7.03;;;;;;;;;;4973991;28;20032;-79
2023/09/12 08:32:27;;;;;;;20.52;6.63;;;;;;;;;;4971699;28;20043;-80
2023/09/12 08:34:53;;;;;;;31.00;9.73;;;;;;;;;;4973014;29;20058;-79
2023/09/12 08:37:20;;;;;;;26.40;15.70;;;;;;;;;;4974721;29;20032;-79
2023/09/12 08:39:48;;;;;;;30.67;15.70;;;;;;;;;;4987207;28;20046;-81
2023/09/12 08:42:15;;;;;;;29.60;16.38;;;;;;;;;;4968480;28;20032;-81
2023/09/12 08:44:42;;;;;;;25.42;11.95;;;;;;;;;;4964678;28;20083;-81
2023/09/12 08:47:09;;;;;;;27.73;11.35;;;;;;;;;;4967991;28;20043;-79
2023/09/12 08:49:40;;;;;;;23.30;10.68;;;;;;;;;;4934017;29;20044;-80
2023/09/12 08:52:07;;;;;;;19.40;10.15;;;;;;;;;;4935039;29;20031;-81
2023/09/12 08:54:33;;;;;;;26.08;10.18;;;;;;;;;;4965893;29;20036;-81
2023/09/12 08:57:03;;;;;;;21.20;11.85;;;;;;;;;;4936424;28;20119;-80
2023/09/12 08:59:30;;;;;;;24.10;10.57;;;;;;;;;;4934613;29;20063;-81
2023/09/12 09:01:58;;;;;;;20.02;10.73;;;;;;;;;;4967095;29;20103;-81
2023/09/12 09:04:26;;;;;;;19.90;9.82;;;;;;;;;;4950577;29;20475;-81
2023/09/12 09:06:52;;;;;;;20.30;8.48;;;;;;;;;;4952003;29;20032;-79
2023/09/12 09:09:18;;;;;;;18.20;8.30;;;;;;;;;;4951002;29;20040;-79
2023/09/12 09:11:44;;;;;;;18.98;9.10;;;;;;;;;;4963229;29;20041;-79
2023/09/12 09:14:10;;;;;;;20.23;8.95;;;;;;;;;;4948661;29;20046;-82
2023/09/12 09:16:36;;;;;;;21.38;8.93;;;;;;;;;;4934869;29;20121;-80
2023/09/12 09:19:04;;;;;;;26.48;9.73;;;;;;;;;;4963517;28;20036;-81
2023/09/12 09:21:32;;;;;;;18.55;8.75;;;;;;;;;;4965376;29;20036;-82
2023/09/12 09:24:03;;;;;;;19.05;8.30;;;;;;;;;;4954576;29;20067;-81
2023/09/12 09:26:41;;;;;;;21.00;8.02;;;;;;;;;;4973982;29;20036;-81
2023/09/12 09:29:08;;;;;;;17.13;7.37;;;;;;;;;;4974109;28;20031;-81
2023/09/12 09:31:34;;;;;;;32.40;8.88;;;;;;;;;;4972105;29;20290;-79
2023/09/12 09:34:01;;;;;;;23.58;9.15;;;;;;;;;;4972000;29;20048;-79
2023/09/12 09:36:27;;;;;;;19.50;8.52;;;;;;;;;;4951353;29;20117;-80
2023/09/12 09:38:54;;;;;;;23.67;8.02;;;;;;;;;;4965626;28;20039;-79
2023/09/12 09:41:20;;;;;;;18.15;8.52;;;;;;;;;;4960595;29;20051;-80
2023/09/12 09:43:46;;;;;;;19.52;8.38;;;;;;;;;;4945940;29;20040;-80
2023/09/12 09:46:15;;;;;;;15.18;7.63;;;;;;;;;;4949904;29;20138;-81
2023/09/12 09:48:48;;;;;;;20.02;9.13;;;;;;;;;;4948047;29;20379;-79
2023/09/12 09:51:13;;;;;;;19.80;9.05;;;;;;;;;;4964660;29;20036;-79
2023/09/12 09:53:39;;;;;;;16.35;8.00;;;;;;;;;;4934672;29;20028;-81
2023/09/12 09:56:08;;;;;;;21.35;9.68;;;;;;;;;;4948906;29;20035;-81
2023/09/12 09:58:34;;;;;;;20.00;8.02;;;;;;;;;;4967188;28;20042;-79
2023/09/12 10:01:01;;;;;;;18.00;8.27;;;;;;;;;;4932279;29;20131;-81
2023/09/12 10:03:29;;;;;;;15.55;8.50;;;;;;;;;;4933693;29;20134;-80
2023/09/12 10:05:56;;;;;;;28.88;11.65;;;;;;;;;;4967678;28;20529;-82
2023/09/12 10:08:23;;;;;;;20.27;9.38;;;;;;;;;;4982215;28;20539;-79
2023/09/12 10:10:51;;;;;;;25.42;10.20;;;;;;;;;;4931662;29;20092;-79
2023/09/12 10:13:18;;;;;;;17.15;9.57;;;;;;;;;;4948063;29;20444;-79
2023/09/12 10:15:44;;;;;;;22.65;7.63;;;;;;;;;;4931680;29;20138;-81
2023/09/12 10:18:11;;;;;;;18.17;8.73;;;;;;;;;;4947664;29;20027;-81
2023/09/12 10:20:39;;;;;;;20.20;8.70;;;;;;;;;;4944363;29;20047;-80
2023/09/12 10:23:11;;;;;;;22.05;8.43;;;;;;;;;;4943679;29;20091;-80
2023/09/12 10:25:37;;;;;;;17.95;7.78;;;;;;;;;;4958053;29;20114;-80
2023/09/12 10:28:04;;;;;;;18.63;8.68;;;;;;;;;;4948872;29;20043;-80
2023/09/12 10:30:31;;;;;;;15.45;7.70;;;;;;;;;;4929602;29;20104;-80
2023/09/12 10:32:57;;;;;;;27.63;9.50;;;;;;;;;;4958599;29;20038;-81
2023/09/12 10:35:23;;;;;;;24.30;8.05;;;;;;;;;;4946476;29;20044;-81
2023/09/12 10:37:50;;;;;;;17.25;8.25;;;;;;;;;;4964362;28;20058;-82
2023/09/12 10:40:16;;;;;;;17.40;8.50;;;;;;;;;;4945140;29;20109;-81
2023/09/12 10:42:42;;;;;;;21.90;8.18;;;;;;;;;;4934274;29;20059;-81
2023/09/12 10:45:08;;;;;;;16.98;9.35;;;;;;;;;;4948922;29;20071;-81
2023/09/12 10:47:38;;;;;;;18.50;8.50;;;;;;;;;;4951523;29;20147;-81
2023/09/12 10:50:04;;;;;;;23.85;8.27;;;;;;;;;;4936181;29;20047;-80
2023/09/12 10:52:30;;;;;;;28.30;8.23;;;;;;;;;;4966586;29;20035;-82
2023/09/12 10:54:56;;;;;;;18.85;8.10;;;;;;;;;;4942581;29;20016;-80
2023/09/12 10:57:22;;;;;;;25.48;8.60;;;;;;;;;;4962767;29;20095;-80
2023/09/12 11:00:04;;;;;;;20.40;7.28;;;;;;;;;;4948395;29;20071;-79
2023/09/12 11:02:31;;;;;;;18.85;8.52;;;;;;;;;;4949103;29;20035;-80
2023/09/12 11:05:04;;;;;;;17.48;7.00;;;;;;;;;;4959726;28;20100;-80
2023/09/12 11:07:40;;;;;;;17.35;7.05;;;;;;;;;;4946102;29;20058;-82
2023/09/12 11:10:15;;;;;;;25.52;7.22;;;;;;;;;;4966911;28;20051;-82
2023/09/12 11:12:42;;;;;;;16.45;7.78;;;;;;;;;;4948494;29;20040;-82
2023/09/12 11:15:11;;;;;;;19.05;7.45;;;;;;;;;;4934650;29;20035;-81
2023/09/12 11:17:40;;;;;;;20.40;7.57;;;;;;;;;;4966312;28;20046;-81
2023/09/12 11:20:12;;;;;;;20.80;7.25;;;;;;;;;;4964359;29;20047;-82
2023/09/12 11:22:47;;;;;;;21.42;6.60;;;;;;;;;;4961934;29;20035;-80
2023/09/12 11:25:17;;;;;;;17.23;6.75;;;;;;;;;;4945785;29;20098;-81
2023/09/12 11:27:53;;;;;;;15.52;6.38;;;;;;;;;;4929111;29;20036;-82
2023/09/12 11:30:19;;;;;;;19.63;7.22;;;;;;;;;;4961412;29;20046;-82
2023/09/12 11:32:46;;;;;;;15.20;6.13;;;;;;;;;;4960451;29;20032;-82
2023/09/12 11:35:14;;;;;;;18.23;6.35;;;;;;;;;;4976474;28;20043;-82
2023/09/12 11:37:48;;;;;;;13.20;6.90;;;;;;;;;;4972901;28;20092;-82
2023/09/12 11:40:14;;;;;;;13.10;5.85;;;;;;;;;;4947522;29;20083;-82
2023/09/12 11:42:39;;;;;;;18.92;6.15;;;;;;;;;;4952300;29;20064;-81
2023/09/12 11:45:09;;;;;;;16.90;5.90;;;;;;;;;;4955156;29;20059;-82
2023/09/12 11:47:41;;;;;;;14.65;5.78;;;;;;;;;;4923849;29;20131;-81
2023/09/12 11:50:25;;;;;;;17.92;5.60;;;;;;;;;;4934501;29;20032;-81
2023/09/12 11:52:57;;;;;;;11.07;5.18;;;;;;;;;;4935913;29;20164;-81
2023/09/12 11:55:23;;;;;;;19.25;6.18;;;;;;;;;;4949307;29;20044;-81
2023/09/12 11:57:51;;;;;;;23.40;5.63;;;;;;;;;;4928873;29;20312;-80
2023/09/12 12:00:20;;;;;;;19.95;8.20;;;;;;;;;;4943717;29;20060;-82
2023/09/12 12:02:47;;;;;;;13.52;5.53;;;;;;;;;;4978033;28;20035;-83
2023/09/12 12:05:13;;;;;;;12.32;6.30;;;;;;;;;;4966571;29;20055;-82
2023/09/12 12:07:39;;;;;;;20.58;8.82;;;;;;;;;;4950209;29;20515;-82
2023/09/12 12:10:04;;;;;;;19.58;7.82;;;;;;;;;;4950078;29;20036;-82
2023/09/12 12:12:33;;;;;;;18.55;8.80;;;;;;;;;;4964407;29;20027;-83
2023/09/12 12:14:58;;;;;;;13.88;7.25;;;;;;;;;;4967256;28;20409;-81
2023/09/12 12:17:24;;;;;;;20.27;7.05;;;;;;;;;;4968224;29;20032;-82
2023/09/12 12:19:49;;;;;;;15.68;5.75;;;;;;;;;;4935172;29;20032;-82
2023/09/12 12:22:15;;;;;;;19.10;6.47;;;;;;;;;;4954751;28;20032;-81
2023/09/12 12:24:46;;;;;;;17.55;7.32;;;;;;;;;;4949108;29;20031;-80
2023/09/12 12:27:12;;;;;;;17.60;7.38;;;;;;;;;;4967173;28;20099;-82
2023/09/12 12:29:39;;;;;;;18.50;6.60;;;;;;;;;;4968764;28;20023;-82
2023/09/12 12:32:05;;;;;;;15.77;6.90;;;;;;;;;;4986595;28;20043;-79
2023/09/12 12:34:31;;;;;;;19.63;6.18;;;;;;;;;;5003563;28;20046;-79
2023/09/12 12:36:57;;;;;;;11.43;6.13;;;;;;;;;;4987062;28;20067;-79
2023/09/12 12:39:23;;;;;;;17.77;6.72;;;;;;;;;;4950046;29;20503;-80
2023/09/12 12:41:52;;;;;;;13.10;5.30;;;;;;;;;;4934754;29;20039;-79
2023/09/12 12:44:17;;;;;;;14.40;6.20;;;;;;;;;;4952011;29;20436;-79
2023/09/12 12:46:51;;;;;;;16.17;6.28;;;;;;;;;;4968809;29;20028;-79
2023/09/12 12:49:18;;;;;;;15.68;6.38;;;;;;;;;;4953280;29;20035;-78
2023/09/12 12:54:35;;;;;;;14.02;6.22;;;;;;;;;;5294001;23;20048;-80
2023/09/12 12:57:02;;;;;;;10.48;5.10;;;;;;;;;;4941201;29;20475;-81
2023/09/12 12:59:29;;;;;;;12.47;5.97;;;;;;;;;;4943309;29;20102;-82
2023/09/12 13:01:55;;;;;;;13.82;5.88;;;;;;;;;;4938097;29;20035;-82
2023/09/12 13:04:20;;;;;;;12.10;4.85;;;;;;;;;;4921892;29;20028;-81
2023/09/12 13:06:46;;;;;;;11.98;5.00;;;;;;;;;;4923002;29;20028;-81
2023/09/12 13:09:12;;;;;;;19.05;5.68;;;;;;;;;;4960879;23;20043;-83
2023/09/12 13:11:42;;;;;;;19.35;6.03;;;;;;;;;;4938256;29;20023;-82
2023/09/12 13:14:11;;;;;;;11.25;5.32;;;;;;;;;;4959100;29;20035;-80
2023/09/12 13:16:41;;;;;;;16.23;5.43;;;;;;;;;;4944129;29;20042;-81
2023/09/12 13:19:06;;;;;;;12.57;4.68;;;;;;;;;;4938308;29;20032;-81
2023/09/12 13:21:32;;;;;;;13.73;5.38;;;;;;;;;;4945754;29;20047;-81
2023/09/12 13:23:59;;;;;;;14.65;5.13;;;;;;;;;;4937014;29;20106;-81
2023/09/12 13:26:25;;;;;;;18.50;4.67;;;;;;;;;;4939888;29;20035;-81
2023/09/12 13:28:50;;;;;;;17.55;5.35;;;;;;;;;;4941887;29;20019;-81
2023/09/12 13:31:17;;;;;;;19.77;5.75;;;;;;;;;;4941671;29;20051;-81
2023/09/12 13:33:45;;;;;;;16.35;5.25;;;;;;;;;;4956126;29;20039;-80
2023/09/12 13:36:10;;;;;;;15.90;5.37;;;;;;;;;;4940953;29;20053;-80
2023/09/12 13:38:36;;;;;;;13.45;4.85;;;;;;;;;;4968428;29;20043;-80
2023/09/12 13:41:03;;;;;;;20.10;5.55;;;;;;;;;;4940599;29;20051;-82
2023/09/12 13:43:28;;;;;;;15.87;5.47;;;;;;;;;;4932428;29;20079;-82
2023/09/12 13:45:54;;;;;;;17.95;11.32;;;;;;;;;;4975896;29;20039;-81
2023/09/12 13:48:19;;;;;;;35.03;23.45;;;;;;;;;;4940715;29;20111;-80
2023/09/12 13:50:46;;;;;;;33.95;22.40;;;;;;;;;;4959784;29;20121;-80
2023/09/12 13:53:14;;;;;;;26.50;16.73;;;;;;;;;;4973614;29;20034;-80
2023/09/12 13:55:39;;;;;;;31.50;19.38;;;;;;;;;;4938886;29;20506;-80
2023/09/12 13:58:06;;;;;;;19.30;10.70;;;;;;;;;;4935184;29;20039;-81
2023/09/12 14:00:33;;;;;;;19.88;5.43;;;;;;;;;;4967160;29;20042;-80
2023/09/12 14:02:59;;;;;;;20.02;5.10;;;;;;;;;;4949893;29;20075;-81
2023/09/12 14:05:24;;;;;;;23.58;8.13;;;;;;;;;;4954276;29;20119;-80
2023/09/12 14:07:51;;;;;;;21.65;8.65;;;;;;;;;;4938493;29;20032;-81
2023/09/12 14:10:16;;;;;;;19.65;6.30;;;;;;;;;;4954785;29;20031;-80
2023/09/12 14:12:44;;;;;;;30.48;7.20;;;;;;;;;;4950060;29;20032;-81
2023/09/12 14:15:11;;;;;;;17.80;5.78;;;;;;;;;;4945650;29;20028;-80
2023/09/12 14:17:37;;;;;;;20.50;9.73;;;;;;;;;;4929850;29;20035;-80
2023/09/12 14:20:03;;;;;;;20.73;6.95;;;;;;;;;;4946854;29;20091;-81
2023/09/12 14:22:31;;;;;;;15.98;6.38;;;;;;;;;;4943561;29;20067;-81
2023/09/12 14:24:57;;;;;;;18.65;8.27;;;;;;;;;;4911909;29;20043;-80
2023/09/12 14:27:23;;;;;;;19.25;7.00;;;;;;;;;;4952167;29;20066;-80
2023/09/12 14:29:50;;;;;;;17.27;6.80;;;;;;;;;;4944018;29;20040;-81
2023/09/12 14:32:16;;;;;;;17.00;6.18;;;;;;;;;;4941901;29;20102;-80